Time;durP1;ratioP1;P1;durP2;ratioP2;P2;SDS_P1;SDS_P2;PMS_P1;PMS_P2;Temp;Humidity;BMP_temperature;BMP_pressure;BME280_temperature;BME280_humidity;BME280_pressure;Samples;Min_cycle;Max_cycle;Signal;HPM_P1;HPM_P2
2021/08/28 00:00:25;;;;;;;;;;;;;;;20.73;41.50;100069.81;5283021;27;33085;-89
2021/08/28 00:02:53;;;;;;;;;;;;;;;21.09;40.74;100076.16;5299983;27;35405;-90
2021/08/28 00:05:21;;;;;;;;;;;;;;;19.91;43.32;100076.97;5282931;27;33901;-90
2021/08/28 00:07:48;;;;;;;;;;;;;;;19.83;43.50;100075.66;5300944;27;34927;-89
2021/08/28 00:10:16;;;;;;;;;;;;;;;19.53;44.08;100079.28;5285162;27;32743;-90
2021/08/28 00:12:44;;;;;;;;;;;;;;;19.60;44.19;100082.41;5284021;27;33817;-89
2021/08/28 00:15:11;;;;;;;;;;;;;;;18.60;46.56;100084.03;5283646;27;34355;-89
2021/08/28 00:17:41;;;;;;;;;;;;;;;18.43;47.17;100092.09;5301787;27;35101;-90
2021/08/28 00:20:09;;;;;;;;;;;;;;;18.83;46.26;100090.56;5319257;27;32522;-90
2021/08/28 00:22:37;;;;;;;;;;;;;;;18.48;46.92;100095.28;5266726;27;36086;-89
2021/08/28 00:25:06;;;;;;;;;;;;;;;18.02;48.52;100093.50;5301852;27;35144;-90
2021/08/28 00:27:40;;;;;;;;;;;;;;;18.49;47.23;100095.22;5287276;27;33921;-89
2021/08/28 00:30:08;;;;;;;;;;;;;;;18.87;46.19;100091.25;5283425;27;32420;-89
2021/08/28 00:32:36;;;;;;;;;;;;;;;19.56;44.38;100098.53;5283516;27;34602;-89
2021/08/28 00:35:04;;;;;;;;;;;;;;;19.63;44.01;100090.12;5284522;27;33923;-89
2021/08/28 00:37:32;;;;;;;;;;;;;;;19.16;45.39;100096.59;5265748;27;35449;-88
2021/08/28 00:40:00;;;;;;;;;;;;;;;19.16;45.22;100101.87;5285551;27;34315;-89
2021/08/28 00:42:29;;;;;;;;;;;;;;;19.45;44.47;100096.56;5287972;27;34189;-90
2021/08/28 00:44:57;;;;;;;;;;;;;;;19.91;43.45;100091.03;5285924;27;34613;-89
2021/08/28 00:47:28;;;;;;;;;;;;;;;19.58;44.13;100102.78;5267929;27;34221;-90
2021/08/28 00:49:55;;;;;;;;;;;;;;;19.41;44.69;100095.06;5267799;27;34342;-89
2021/08/28 00:52:23;;;;;;;;;;;;;;;19.09;45.60;100095.25;5301445;27;34338;-89
2021/08/28 00:54:51;;;;;;;;;;;;;;;19.11;45.42;100091.56;5282541;27;36304;-89
2021/08/28 00:57:20;;;;;;;;;;;;;;;19.08;45.61;100089.13;5264332;27;35097;-89
2021/08/28 00:59:48;;;;;;;;;;;;;;;18.96;45.90;100090.72;5283675;27;33525;-90
2021/08/28 01:02:16;;;;;;;;;;;;;;;18.86;46.12;100089.53;5318290;27;35587;-90
2021/08/28 01:04:49;;;;;;;;;;;;;;;19.48;44.63;100084.03;5299674;27;35871;-88
2021/08/28 01:07:19;;;;;;;;;;;;;;;19.02;45.72;100077.13;5264444;27;35313;-90
2021/08/28 01:09:49;;;;;;;;;;;;;;;19.28;44.85;100082.62;5265430;27;32209;-90
2021/08/28 01:12:24;;;;;;;;;;;;;;;18.89;45.87;100084.09;5267657;27;33596;-89
2021/08/28 01:15:01;;;;;;;;;;;;;;;18.23;47.74;100086.19;5284264;27;35188;-90
2021/08/28 01:17:30;;;;;;;;;;;;;;;18.72;46.29;100085.09;5265897;27;34990;-89
2021/08/28 01:20:04;;;;;;;;;;;;;;;18.72;46.39;100086.88;5284009;27;34459;-89
2021/08/28 01:22:35;;;;;;;;;;;;;;;19.37;44.75;100083.81;5300910;27;33996;-89
2021/08/28 01:25:03;;;;;;;;;;;;;;;19.56;44.10;100080.03;5301297;27;34412;-90
2021/08/28 01:27:45;;;;;;;;;;;;;;;19.80;43.74;100085.56;5265005;27;33511;-89
2021/08/28 01:30:16;;;;;;;;;;;;;;;19.48;44.50;100077.91;5285558;27;33843;-89
2021/08/28 01:32:44;;;;;;;;;;;;;;;19.10;44.89;100081.94;5302550;27;34620;-90
2021/08/28 01:35:12;;;;;;;;;;;;;;;19.80;43.16;100089.06;5285012;27;33678;-89
2021/08/28 01:37:40;;;;;;;;;;;;;;;19.31;44.40;100086.88;5320961;26;34120;-90
2021/08/28 01:40:08;;;;;;;;;;;;;;;19.61;43.84;100086.75;5283223;27;33559;-90
2021/08/28 01:42:37;;;;;;;;;;;;;;;19.79;43.45;100084.72;5283828;27;34528;-89
2021/08/28 01:45:05;;;;;;;;;;;;;;;19.99;42.86;100087.91;5318410;27;36119;-89
2021/08/28 01:47:33;;;;;;;;;;;;;;;19.23;44.61;100082.06;5264142;27;35582;-89
2021/08/28 01:50:02;;;;;;;;;;;;;;;19.16;44.87;100080.75;5263884;27;34575;-90
2021/08/28 01:52:30;;;;;;;;;;;;;;;19.43;44.25;100079.97;5263508;27;34678;-90
2021/08/28 01:54:57;;;;;;;;;;;;;;;20.17;42.57;100080.59;5299713;27;34886;-89
2021/08/28 01:57:26;;;;;;;;;;;;;;;19.97;42.74;100077.44;5281954;27;34170;-89
2021/08/28 01:59:54;;;;;;;;;;;;;;;19.13;44.80;100079.16;5282285;27;33652;-90
2021/08/28 02:02:22;;;;;;;;;;;;;;;18.64;45.87;100072.34;5282769;27;34097;-89
2021/08/28 02:04:52;;;;;;;;;;;;;;;18.56;46.31;100079.88;5265070;27;35898;-90
2021/08/28 02:07:21;;;;;;;;;;;;;;;18.09;47.41;100078.19;5282992;27;33173;-90
2021/08/28 02:10:19;;;;;;;;;;;;;;;17.69;48.52;100076.81;5283962;27;33459;-91
2021/08/28 02:12:52;;;;;;;;;;;;;;;17.35;49.82;100078.66;5293335;27;33818;-89
2021/08/28 02:15:21;;;;;;;;;;;;;;;16.43;52.65;100084.25;5266278;27;36087;-89
2021/08/28 02:17:50;;;;;;;;;;;;;;;16.17;53.15;100078.50;5321083;27;34529;-88
2021/08/28 02:20:18;;;;;;;;;;;;;;;16.47;52.32;100079.69;5285427;27;34278;-90
2021/08/28 02:22:48;;;;;;;;;;;;;;;16.02;53.54;100082.72;5285073;27;33764;-88
2021/08/28 02:25:36;;;;;;;;;;;;;;;17.27;50.27;100069.47;5271115;27;33798;-89
2021/08/28 02:28:04;;;;;;;;;;;;;;;17.52;49.37;100067.22;5284241;27;36392;-90
2021/08/28 02:30:33;;;;;;;;;;;;;;;18.19;47.71;100058.28;5267075;27;33845;-90
2021/08/28 02:33:04;;;;;;;;;;;;;;;17.93;48.07;100062.41;5303266;27;34370;-90
2021/08/28 02:35:33;;;;;;;;;;;;;;;18.86;45.82;100063.13;5286135;27;34320;-90
2021/08/28 02:38:01;;;;;;;;;;;;;;;19.05;44.99;100062.06;5285033;27;34897;-89
2021/08/28 02:40:29;;;;;;;;;;;;;;;19.29;44.40;100057.03;5285652;27;35870;-89
2021/08/28 02:42:57;;;;;;;;;;;;;;;19.17;44.05;100056.00;5303670;27;35005;-89
2021/08/28 02:45:26;;;;;;;;;;;;;;;19.45;42.90;100065.72;5285306;27;33808;-90
2021/08/28 02:47:57;;;;;;;;;;;;;;;19.30;42.80;100054.31;5285530;27;34625;-90
2021/08/28 02:50:25;;;;;;;;;;;;;;;18.95;43.68;100067.06;5285478;27;32267;-89
2021/08/28 02:52:54;;;;;;;;;;;;;;;18.94;43.74;100057.44;5267811;27;35012;-89
2021/08/28 02:55:23;;;;;;;;;;;;;;;18.05;46.10;100066.97;5303012;27;33580;-90
2021/08/28 02:57:52;;;;;;;;;;;;;;;19.19;43.33;100060.25;5302683;27;33436;-89
2021/08/28 03:00:20;;;;;;;;;;;;;;;19.95;41.46;100057.31;5286241;27;33624;-90
2021/08/28 03:02:49;;;;;;;;;;;;;;;19.34;42.90;100057.59;5268450;27;35169;-90
2021/08/28 03:05:19;;;;;;;;;;;;;;;19.24;43.13;100053.84;5267336;27;32973;-89
2021/08/28 03:07:48;;;;;;;;;;;;;;;18.30;45.41;100049.75;5303591;27;35588;-90
2021/08/28 03:10:17;;;;;;;;;;;;;;;18.43;45.13;100050.72;5267712;27;32967;-89
2021/08/28 03:12:45;;;;;;;;;;;;;;;19.14;43.44;100048.28;5302408;27;33293;-90
2021/08/28 03:15:12;;;;;;;;;;;;;;;19.07;43.41;100041.69;5285220;27;33767;-89
2021/08/28 03:17:43;;;;;;;;;;;;;;;19.45;42.81;100055.16;5268401;27;34089;-88
2021/08/28 03:20:11;;;;;;;;;;;;;;;19.59;42.74;100050.78;5267328;27;33715;-89
2021/08/28 03:22:39;;;;;;;;;;;;;;;19.21;43.75;100052.22;5302745;27;34668;-91
2021/08/28 03:25:07;;;;;;;;;;;;;;;19.14;44.00;100051.75;5285637;27;34737;-90
2021/08/28 03:27:36;;;;;;;;;;;;;;;19.35;43.69;100056.66;5267274;27;33836;-92
2021/08/28 03:30:05;;;;;;;;;;;;;;;19.10;44.28;100050.25;5302406;27;34014;-90
2021/08/28 03:32:34;;;;;;;;;;;;;;;19.90;42.30;100052.31;5267247;27;33740;-89
2021/08/28 03:35:02;;;;;;;;;;;;;;;19.67;42.49;100059.06;5284930;27;33699;-89
2021/08/28 03:37:31;;;;;;;;;;;;;;;19.51;42.24;100056.56;5303339;27;34520;-91
2021/08/28 03:40:00;;;;;;;;;;;;;;;18.95;44.34;100056.50;5302667;27;32975;-90
2021/08/28 03:42:29;;;;;;;;;;;;;;;19.25;43.13;100050.25;5286649;27;34514;-90
2021/08/28 03:44:57;;;;;;;;;;;;;;;19.98;41.43;100051.81;5285146;27;34947;-90
2021/08/28 03:47:25;;;;;;;;;;;;;;;19.22;43.73;100053.94;5266522;27;34462;-89
2021/08/28 03:49:54;;;;;;;;;;;;;;;19.15;44.11;100056.09;5266177;27;34417;-89
2021/08/28 03:52:21;;;;;;;;;;;;;;;18.02;47.57;100056.59;5283974;27;35751;-90
2021/08/28 03:54:50;;;;;;;;;;;;;;;17.67;48.28;100060.25;5284426;27;36081;-89
2021/08/28 03:57:18;;;;;;;;;;;;;;;16.99;50.62;100063.91;5320269;27;34307;-90
2021/08/28 03:59:46;;;;;;;;;;;;;;;18.65;46.41;100058.22;5301674;27;32717;-88
2021/08/28 04:02:15;;;;;;;;;;;;;;;18.78;46.34;100057.47;5266498;27;34652;-89
2021/08/28 04:04:44;;;;;;;;;;;;;;;19.21;45.14;100057.50;5301161;27;35675;-91
2021/08/28 04:07:12;;;;;;;;;;;;;;;17.90;48.29;100060.75;5319896;27;35079;-89
2021/08/28 04:09:40;;;;;;;;;;;;;;;18.03;48.03;100074.97;5265745;27;33679;-90
2021/08/28 04:12:08;;;;;;;;;;;;;;;16.67;51.66;100069.03;5265623;27;33368;-89
2021/08/28 04:14:38;;;;;;;;;;;;;;;17.10;51.13;100062.47;5284153;27;33812;-89
2021/08/28 04:17:06;;;;;;;;;;;;;;;17.54;49.82;100061.88;5265273;27;34283;-89
2021/08/28 04:19:34;;;;;;;;;;;;;;;17.96;48.72;100065.72;5266366;27;33844;-90
2021/08/28 04:22:03;;;;;;;;;;;;;;;18.39;47.67;100062.41;5266060;27;35650;-90
2021/08/28 04:24:35;;;;;;;;;;;;;;;18.18;48.17;100072.41;5286435;27;34705;-91
2021/08/28 04:27:05;;;;;;;;;;;;;;;18.33;47.61;100070.66;5267455;27;33729;-89
2021/08/28 04:29:33;;;;;;;;;;;;;;;19.22;45.21;100080.34;5301645;27;33747;-90
2021/08/28 04:32:01;;;;;;;;;;;;;;;19.58;44.23;100076.34;5283850;27;33738;-91
2021/08/28 04:34:31;;;;;;;;;;;;;;;19.13;45.54;100079.16;5266093;27;36167;-91
2021/08/28 04:36:58;;;;;;;;;;;;;;;20.18;42.92;100074.31;5283011;27;36191;-89
2021/08/28 04:39:27;;;;;;;;;;;;;;;20.09;41.82;100075.78;5266242;27;33662;-89
2021/08/28 04:41:55;;;;;;;;;;;;;;;20.34;40.64;100072.38;5319164;27;36284;-89
2021/08/28 04:44:23;;;;;;;;;;;;;;;20.35;40.28;100070.56;5301794;27;35374;-90
2021/08/28 04:46:51;;;;;;;;;;;;;;;20.49;40.02;100067.00;5284044;27;34625;-88
2021/08/28 04:49:20;;;;;;;;;;;;;;;20.36;40.24;100070.44;5265886;27;35227;-89
2021/08/28 04:51:48;;;;;;;;;;;;;;;20.52;40.16;100080.03;5266582;27;33810;-90
2021/08/28 04:54:16;;;;;;;;;;;;;;;20.48;40.44;100082.03;5266714;27;34267;-89
2021/08/28 04:56:46;;;;;;;;;;;;;;;20.05;41.58;100084.00;5320744;27;33293;-90
2021/08/28 04:59:16;;;;;;;;;;;;;;;20.21;41.58;100083.84;5283869;27;33124;-91
2021/08/28 05:01:47;;;;;;;;;;;;;;;19.45;43.34;100080.72;5286575;27;34623;-91
2021/08/28 05:04:17;;;;;;;;;;;;;;;19.85;42.40;100087.00;5285580;27;35096;-88
2021/08/28 05:06:45;;;;;;;;;;;;;;;19.26;43.76;100092.41;5301828;27;34806;-91
2021/08/28 05:09:17;;;;;;;;;;;;;;;19.29;43.87;100097.53;5321109;27;33523;-92
2021/08/28 05:11:47;;;;;;;;;;;;;;;19.62;43.26;100099.00;5268709;27;34709;-89
2021/08/28 05:14:15;;;;;;;;;;;;;;;20.37;41.60;100100.44;5269292;27;34697;-91
2021/08/28 05:16:44;;;;;;;;;;;;;;;19.90;42.66;100097.28;5322297;27;33649;-89
2021/08/28 05:19:16;;;;;;;;;;;;;;;20.12;42.46;100104.66;5270709;27;33484;-90
2021/08/28 05:21:46;;;;;;;;;;;;;;;20.13;42.59;100108.16;5304889;27;33570;-90
2021/08/28 05:24:16;;;;;;;;;;;;;;;19.79;43.38;100099.72;5267812;27;34938;-90
2021/08/28 05:26:46;;;;;;;;;;;;;;;19.49;44.38;100109.50;5267958;27;33593;-90
2021/08/28 05:29:15;;;;;;;;;;;;;;;20.47;42.23;100111.25;5302929;27;34311;-91
2021/08/28 05:31:44;;;;;;;;;;;;;;;20.80;41.39;100110.78;5284975;27;35980;-91
2021/08/28 05:34:14;;;;;;;;;;;;;;;21.21;40.72;100111.56;5267599;27;33324;-90
2021/08/28 05:36:45;;;;;;;;;;;;;;;21.50;40.41;100106.03;5286255;26;34277;-91
2021/08/28 05:39:15;;;;;;;;;;;;;;;21.24;41.37;100103.38;5267233;27;33172;-89
2021/08/28 05:41:44;;;;;;;;;;;;;;;21.51;41.20;100108.56;5266951;27;33845;-89
2021/08/28 05:44:17;;;;;;;;;;;;;;;21.91;40.65;100104.87;5303266;27;33826;-91
2021/08/28 05:46:49;;;;;;;;;;;;;;;21.80;41.07;100104.81;5320366;27;33634;-89
2021/08/28 05:49:18;;;;;;;;;;;;;;;22.00;40.75;100100.69;5285080;27;32230;-91
2021/08/28 05:51:46;;;;;;;;;;;;;;;22.33;40.16;100102.66;5266394;27;34191;-91
2021/08/28 05:54:17;;;;;;;;;;;;;;;21.87;41.42;100090.12;5267693;27;34131;-90
2021/08/28 05:56:46;;;;;;;;;;;;;;;21.92;41.43;100100.41;5266788;27;33734;-90
2021/08/28 05:59:13;;;;;;;;;;;;;;;21.54;42.56;100094.28;5321221;27;34265;-92
2021/08/28 06:01:46;;;;;;;;;;;;;;;22.40;40.69;100086.31;5285598;27;33957;-90
2021/08/28 06:04:17;;;;;;;;;;;;;;;22.58;40.06;100090.25;5268021;27;34290;-90
2021/08/28 06:06:47;;;;;;;;;;;;;;;22.76;39.46;100090.66;5284151;27;35205;-88
2021/08/28 06:09:17;;;;;;;;;;;;;;;22.95;39.07;100092.72;5284590;27;34110;-90
2021/08/28 06:11:51;;;;;;;;;;;;;;;22.99;39.05;100085.38;5268702;27;33768;-89
2021/08/28 06:14:22;;;;;;;;;;;;;;;23.10;38.86;100093.34;5284481;27;34952;-88
2021/08/28 06:16:53;;;;;;;;;;;;;;;22.75;39.57;100082.78;5302953;27;33673;-89
2021/08/28 06:19:26;;;;;;;;;;;;;;;22.89;39.11;100084.41;5286523;27;33287;-89
2021/08/28 06:22:01;;;;;;;;;;;;;;;22.52;40.00;100088.91;5268838;27;33723;-90
2021/08/28 06:24:31;;;;;;;;;;;;;;;21.66;41.82;100089.91;5266912;27;35859;-89
2021/08/28 06:27:03;;;;;;;;;;;;;;;22.41;40.37;100091.50;5302830;27;33582;-89
2021/08/28 06:29:31;;;;;;;;;;;;;;;22.35;40.54;100082.19;5266398;27;32792;-90
2021/08/28 06:32:03;;;;;;;;;;;;;;;22.59;39.98;100086.62;5285439;27;35358;-89
2021/08/28 06:34:36;;;;;;;;;;;;;;;22.92;39.52;100086.81;5284724;27;34816;-89
2021/08/28 06:37:09;;;;;;;;;;;;;;;22.68;40.24;100093.03;5302621;27;32952;-90
2021/08/28 06:39:45;;;;;;;;;;;;;;;22.88;39.79;100083.53;5267697;27;31902;-89
2021/08/28 06:42:15;;;;;;;;;;;;;;;21.08;43.60;100085.06;5285184;27;34418;-90
2021/08/28 06:44:57;;;;;;;;;;;;;;;22.71;40.27;100090.16;5286359;27;33838;-90
2021/08/28 06:47:29;;;;;;;;;;;;;;;23.17;39.10;100093.75;5267868;27;33875;-89
2021/08/28 06:50:02;;;;;;;;;;;;;;;22.73;39.92;100095.34;5268215;27;33504;-89
2021/08/28 06:52:41;;;;;;;;;;;;;;;22.87;40.08;100089.84;5288876;27;33611;-89
2021/08/28 06:55:28;;;;;;;;;;;;;;;23.62;38.48;100088.41;5320883;27;33692;-90
2021/08/28 06:57:59;;;;;;;;;;;;;;;23.47;38.85;100081.66;5302546;27;34626;-89
2021/08/28 07:00:27;;;;;;;;;;;;;;;23.76;38.11;100084.63;5267053;27;33119;-90
2021/08/28 07:03:02;;;;;;;;;;;;;;;24.31;37.09;100076.62;5268316;27;35088;-90
2021/08/28 07:05:32;;;;;;;;;;;;;;;22.55;40.77;100081.66;5284501;27;34356;-89
2021/08/28 07:08:05;;;;;;;;;;;;;;;23.16;39.60;100081.41;5285130;27;36878;-90
2021/08/28 07:10:33;;;;;;;;;;;;;;;24.12;37.80;100076.47;5301803;27;32531;-90
2021/08/28 07:13:02;;;;;;;;;;;;;;;24.65;36.81;100080.94;5266713;27;37042;-90
2021/08/28 07:15:31;;;;;;;;;;;;;;;24.71;36.43;100077.78;5265965;27;37481;-90
2021/08/28 07:18:03;;;;;;;;;;;;;;;24.68;36.32;100073.53;5320433;27;33419;-89
2021/08/28 07:20:34;;;;;;;;;;;;;;;25.08;35.58;100073.78;5301989;27;34208;-90
2021/08/28 07:23:05;;;;;;;;;;;;;;;25.16;35.22;100074.78;5302963;27;34449;-89
2021/08/28 07:25:40;;;;;;;;;;;;;;;25.00;35.68;100071.78;5268251;27;34524;-89
2021/08/28 07:28:11;;;;;;;;;;;;;;;25.19;35.14;100076.34;5284322;27;33859;-90
2021/08/28 07:30:42;;;;;;;;;;;;;;;24.24;37.38;100071.91;5266851;27;33452;-90
2021/08/28 07:33:12;;;;;;;;;;;;;;;24.49;36.84;100076.03;5301570;27;33478;-90
2021/08/28 07:35:41;;;;;;;;;;;;;;;24.32;37.40;100072.16;5266087;27;33279;-90
2021/08/28 07:38:08;;;;;;;;;;;;;;;25.18;35.79;100063.97;5282997;27;34015;-89
2021/08/28 07:40:39;;;;;;;;;;;;;;;25.15;35.64;100074.91;5286031;27;889160;-90
2021/08/28 07:43:07;;;;;;;;;;;;;;;25.16;35.78;100079.28;5266300;27;33034;-90
2021/08/28 07:45:37;;;;;;;;;;;;;;;25.21;35.45;100079.72;5266423;27;34272;-90
2021/08/28 07:48:08;;;;;;;;;;;;;;;24.88;35.91;100073.66;5284961;27;35954;-90
2021/08/28 07:50:36;;;;;;;;;;;;;;;25.22;35.07;100076.06;5283131;27;34298;-89
2021/08/28 07:53:06;;;;;;;;;;;;;;;25.42;34.36;100070.84;5301128;27;32556;-91
2021/08/28 07:55:35;;;;;;;;;;;;;;;25.60;34.02;100082.53;5266456;27;36135;-90
2021/08/28 07:58:03;;;;;;;;;;;;;;;25.42;34.34;100073.50;5301495;27;33368;-89
2021/08/28 08:00:31;;;;;;;;;;;;;;;25.69;33.78;100075.56;5302338;27;34332;-90
2021/08/28 08:03:00;;;;;;;;;;;;;;;25.97;33.47;100073.91;5266276;27;35121;-89
2021/08/28 08:05:29;;;;;;;;;;;;;;;26.01;33.12;100077.97;5285127;27;34462;-89
2021/08/28 08:08:05;;;;;;;;;;;;;;;25.99;33.03;100071.94;5267963;27;34648;-90
2021/08/28 08:10:36;;;;;;;;;;;;;;;25.78;33.51;100068.53;5266616;27;35421;-89
2021/08/28 08:13:09;;;;;;;;;;;;;;;25.83;33.70;100068.97;5266467;27;32942;-90
2021/08/28 08:15:39;;;;;;;;;;;;;;;26.12;32.96;100061.00;5302775;27;34001;-89
2021/08/28 08:18:11;;;;;;;;;;;;;;;26.42;32.44;100060.97;5302140;27;34518;-89
2021/08/28 08:20:42;;;;;;;;;;;;;;;25.32;34.22;100057.44;5301730;27;33999;-90
2021/08/28 08:23:15;;;;;;;;;;;;;;;26.11;32.90;100071.81;5284021;27;35424;-90
2021/08/28 08:25:47;;;;;;;;;;;;;;;26.65;31.73;100051.66;5266873;27;35272;-91
2021/08/28 08:28:17;;;;;;;;;;;;;;;26.08;32.50;100056.09;5267344;27;35138;-90
2021/08/28 08:30:52;;;;;;;;;;;;;;;26.70;31.35;100056.59;5268343;27;34627;-91
2021/08/28 08:33:22;;;;;;;;;;;;;;;26.56;31.36;100055.19;5267612;27;35117;-88
2021/08/28 08:35:54;;;;;;;;;;;;;;;26.85;30.57;100053.50;5284738;27;34845;-91
2021/08/28 08:38:24;;;;;;;;;;;;;;;27.25;29.94;100058.53;5302449;27;33865;-89
2021/08/28 08:40:55;;;;;;;;;;;;;;;27.45;29.77;100050.44;5284958;27;32731;-88
2021/08/28 08:43:24;;;;;;;;;;;;;;;27.48;29.37;100050.13;5285365;27;35375;-89
2021/08/28 08:45:54;;;;;;;;;;;;;;;27.19;30.27;100056.47;5285324;27;34587;-91
2021/08/28 08:48:28;;;;;;;;;;;;;;;27.61;29.34;100057.81;5268515;27;33618;-90
2021/08/28 08:50:57;;;;;;;;;;;;;;;26.48;30.43;100052.41;5266653;27;32803;-90
2021/08/28 08:53:26;;;;;;;;;;;;;;;27.26;29.84;100048.69;5266920;27;33540;-90
2021/08/28 08:55:59;;;;;;;;;;;;;;;27.45;29.39;100048.59;5304518;27;35376;-90
2021/08/28 08:58:33;;;;;;;;;;;;;;;26.59;30.00;100048.72;5303309;27;34913;-90
2021/08/28 09:01:04;;;;;;;;;;;;;;;27.33;29.02;100047.94;5285098;27;33704;-90
2021/08/28 09:03:39;;;;;;;;;;;;;;;27.64;28.80;100053.00;5284809;27;36570;-90
2021/08/28 09:06:13;;;;;;;;;;;;;;;27.16;29.57;100059.41;5267957;27;34744;-90
2021/08/28 09:08:45;;;;;;;;;;;;;;;27.44;28.73;100052.28;5303015;27;35202;-90
2021/08/28 09:11:25;;;;;;;;;;;;;;;27.53;28.79;100042.50;5265871;27;33775;-90
2021/08/28 09:14:14;;;;;;;;;;;;;;;27.73;28.75;100050.41;5266441;27;36552;-90
2021/08/28 09:16:45;;;;;;;;;;;;;;;28.06;28.24;100048.09;5266034;27;33622;-89
2021/08/28 09:19:18;;;;;;;;;;;;;;;28.07;28.06;100044.44;5318724;27;33463;-91
2021/08/28 09:21:47;;;;;;;;;;;;;;;27.99;28.28;100047.84;5265632;27;34332;-92
2021/08/28 09:24:19;;;;;;;;;;;;;;;27.14;29.42;100056.91;5266662;27;36068;-90
2021/08/28 09:26:46;;;;;;;;;;;;;;;27.33;29.14;100050.59;5265495;27;33642;-90
2021/08/28 09:29:17;;;;;;;;;;;;;;;27.36;28.83;100043.28;5266034;27;34416;-90
2021/08/28 09:31:53;;;;;;;;;;;;;;;27.80;28.30;100048.81;5266942;27;32943;-90
2021/08/28 09:34:23;;;;;;;;;;;;;;;27.58;29.11;100050.94;5300473;27;33388;-89
2021/08/28 09:36:58;;;;;;;;;;;;;;;27.43;28.98;100049.75;5265255;27;34264;-90
2021/08/28 09:39:35;;;;;;;;;;;;;;;27.67;28.43;100050.03;5265395;27;34879;-89
2021/08/28 09:42:07;;;;;;;;;;;;;;;27.09;29.27;100047.63;5268279;27;34481;-90
2021/08/28 09:44:41;;;;;;;;;;;;;;;27.97;28.18;100039.09;5271098;27;33185;-90
2021/08/28 09:47:14;;;;;;;;;;;;;;;28.61;26.67;100045.19;5304194;27;35327;-91
2021/08/28 09:49:47;;;;;;;;;;;;;;;28.79;26.20;100042.47;5269711;27;33677;-89
2021/08/28 09:52:20;;;;;;;;;;;;;;;28.09;27.54;100047.78;5269904;27;33597;-90
2021/08/28 09:54:50;;;;;;;;;;;;;;;28.24;26.76;100038.22;5286915;27;35434;-90
2021/08/28 09:57:20;;;;;;;;;;;;;;;28.74;25.83;100046.63;5268315;27;34677;-90
2021/08/28 09:59:48;;;;;;;;;;;;;;;29.02;25.32;100033.03;5267922;27;33667;-90
2021/08/28 10:02:22;;;;;;;;;;;;;;;29.47;24.60;100040.75;5285678;27;35193;-89
2021/08/28 10:04:57;;;;;;;;;;;;;;;29.44;24.52;100040.28;5267780;27;35970;-90
2021/08/28 10:07:41;;;;;;;;;;;;;;;29.73;24.04;100038.97;5268545;27;36134;-90
2021/08/28 10:10:12;;;;;;;;;;;;;;;30.27;23.65;100025.94;5302926;27;34819;-90
2021/08/28 10:12:40;;;;;;;;;;;;;;;30.48;23.52;100021.94;5266864;27;32578;-89
2021/08/28 10:15:08;;;;;;;;;;;;;;;30.65;23.52;100022.75;5266765;27;34628;-90
2021/08/28 10:17:37;;;;;;;;;;;;;;;30.78;23.10;100014.97;5266596;27;37262;-90
2021/08/28 10:20:10;;;;;;;;;;;;;;;30.23;23.78;100005.81;5267995;27;34964;-90
2021/08/28 10:22:40;;;;;;;;;;;;;;;30.34;23.93;100006.47;5266826;27;32636;-89
2021/08/28 10:25:13;;;;;;;;;;;;;;;30.84;23.31;100008.06;5267528;27;34624;-91
2021/08/28 10:27:44;;;;;;;;;;;;;;;30.45;23.73;100003.44;5266936;27;33986;-91
2021/08/28 10:30:14;;;;;;;;;;;;;;;30.21;23.17;99999.78;5266778;27;34389;-89
2021/08/28 10:32:47;;;;;;;;;;;;;;;30.97;22.59;100000.28;5267039;27;34812;-91
2021/08/28 10:35:15;;;;;;;;;;;;;;;31.26;22.46;99996.16;5265582;27;37046;-91
2021/08/28 10:37:49;;;;;;;;;;;;;;;30.84;22.78;99999.16;5320888;26;34645;-90
2021/08/28 10:40:18;;;;;;;;;;;;;;;31.26;22.27;99992.59;5265516;27;35280;-91
2021/08/28 10:42:47;;;;;;;;;;;;;;;31.35;22.44;99993.41;5282891;27;33181;-90
2021/08/28 10:45:24;;;;;;;;;;;;;;;31.47;21.66;99989.28;5265670;27;35058;-91
2021/08/28 10:48:03;;;;;;;;;;;;;;;29.76;24.09;100004.59;5284268;27;33364;-89
2021/08/28 10:50:33;;;;;;;;;;;;;;;30.75;22.97;99995.66;5299217;27;35069;-92
2021/08/28 10:53:03;;;;;;;;;;;;;;;30.94;22.81;99992.56;5264570;27;34220;-90
2021/08/28 10:55:32;;;;;;;;;;;;;;;30.73;21.85;99995.00;5299784;27;35335;-92
2021/08/28 10:58:10;;;;;;;;;;;;;;;31.46;21.23;99996.53;5264639;27;36453;-92
2021/08/28 11:00:44;;;;;;;;;;;;;;;30.95;22.35;99993.41;5300039;27;34010;-90
2021/08/28 11:03:34;;;;;;;;;;;;;;;30.89;22.76;99992.25;5299355;27;32807;-91
2021/08/28 11:06:15;;;;;;;;;;;;;;;30.72;22.66;99979.88;5265344;27;37301;-89
2021/08/28 11:08:53;;;;;;;;;;;;;;;30.59;22.87;99986.63;5281578;27;33407;-90
2021/08/28 11:11:27;;;;;;;;;;;;;;;31.54;21.87;99984.88;5265453;27;33738;-89
2021/08/28 11:20:23;;;;;;;;;;;;;;;32.10;20.14;99968.47;5285525;27;35004;-86
2021/08/28 11:22:52;;;;;;;;;;;;;;;31.26;21.45;99961.16;5286987;26;33432;-88
2021/08/28 11:25:24;;;;;;;;;;;;;;;30.68;22.21;99957.88;5306163;26;33892;-89
2021/08/28 11:27:55;;;;;;;;;;;;;;;31.18;21.89;99958.53;5306670;26;34221;-89
2021/08/28 11:30:41;;;;;;;;;;;;;;;31.00;21.65;99968.69;5306111;26;34986;-88
2021/08/28 11:33:16;;;;;;;;;;;;;;;31.54;21.12;99965.19;5306595;26;34199;-89
2021/08/28 11:35:48;;;;;;;;;;;;;;;30.74;22.05;99967.94;5324792;26;34216;-89
2021/08/28 11:38:23;;;;;;;;;;;;;;;30.92;21.90;99965.00;5324494;26;34454;-88
2021/08/28 11:40:57;;;;;;;;;;;;;;;31.70;20.99;99962.41;5326371;26;35385;-90
2021/08/28 11:43:36;;;;;;;;;;;;;;;31.34;21.59;99957.59;5307059;26;34233;-89
2021/08/28 11:46:04;;;;;;;;;;;;;;;32.00;20.90;99962.50;5306032;26;34664;-89
2021/08/28 11:48:33;;;;;;;;;;;;;;;31.91;20.92;99953.66;5286720;26;34135;-89
2021/08/28 11:51:03;;;;;;;;;;;;;;;32.09;20.70;99971.34;5302944;26;34679;-89
2021/08/28 11:53:31;;;;;;;;;;;;;;;31.93;20.68;99967.78;5321959;26;33989;-88
2021/08/28 11:56:03;;;;;;;;;;;;;;;32.13;20.43;99962.72;5285293;26;34496;-89
2021/08/28 11:58:30;;;;;;;;;;;;;;;32.01;20.49;99960.66;5302273;26;34693;-89
2021/08/28 12:00:58;;;;;;;;;;;;;;;31.73;20.95;99951.28;5304409;26;35697;-89
2021/08/28 12:03:26;;;;;;;;;;;;;;;30.91;21.96;99954.41;5304994;26;33925;-89
2021/08/28 12:05:54;;;;;;;;;;;;;;;30.72;22.26;99956.50;5303908;26;35401;-89
2021/08/28 12:08:22;;;;;;;;;;;;;;;30.89;22.04;99965.34;5285757;26;34999;-89
2021/08/28 12:10:49;;;;;;;;;;;;;;;31.07;21.66;99951.69;5304999;26;33579;-90
2021/08/28 12:13:17;;;;;;;;;;;;;;;31.55;21.00;99946.19;5306267;26;33220;-89
2021/08/28 12:15:45;;;;;;;;;;;;;;;31.54;20.65;99949.88;5308724;26;33989;-89
2021/08/28 12:18:12;;;;;;;;;;;;;;;31.89;19.57;99941.41;5291244;26;35168;-89
2021/08/28 12:20:40;;;;;;;;;;;;;;;31.99;19.66;99947.37;5290074;26;35455;-88
2021/08/28 12:23:10;;;;;;;;;;;;;;;30.73;21.15;99952.00;5324843;26;33786;-89
2021/08/28 12:25:38;;;;;;;;;;;;;;;31.75;19.77;99954.66;5288131;26;34348;-89
2021/08/28 12:28:05;;;;;;;;;;;;;;;32.06;19.29;99960.94;5291006;26;33205;-88
2021/08/28 12:30:33;;;;;;;;;;;;;;;32.14;19.09;99963.56;5309765;26;36046;-88
2021/08/28 12:33:08;;;;;;;;;;;;;;;32.18;19.09;99954.13;5286759;26;35601;-88
2021/08/28 12:35:36;;;;;;;;;;;;;;;31.21;19.84;99950.09;5286238;26;33595;-89
2021/08/28 12:38:12;;;;;;;;;;;;;;;30.39;21.02;99961.13;5304569;26;36237;-88
2021/08/28 12:40:40;;;;;;;;;;;;;;;30.92;20.42;99956.09;5286705;26;34388;-89
2021/08/28 12:43:07;;;;;;;;;;;;;;;31.43;20.02;99950.28;5288180;26;35992;-88
2021/08/28 12:45:35;;;;;;;;;;;;;;;31.44;20.02;99946.59;5288506;26;34054;-88
2021/08/28 12:48:05;;;;;;;;;;;;;;;32.04;19.42;99941.41;5307195;26;34678;-89
2021/08/28 12:50:33;;;;;;;;;;;;;;;32.01;19.38;99931.84;5315968;26;34418;-89
2021/08/28 12:53:04;;;;;;;;;;;;;;;31.17;19.96;99935.31;5317201;26;35544;-88
2021/08/28 12:55:33;;;;;;;;;;;;;;;31.23;19.95;99929.25;5299480;26;32427;-89
2021/08/28 12:58:02;;;;;;;;;;;;;;;31.52;19.65;99916.91;5317372;26;34050;-89
2021/08/28 13:00:40;;;;;;;;;;;;;;;30.88;20.66;99909.87;5316923;26;34563;-89